Time;durP1;ratioP1;P1;durP2;ratioP2;P2;SDS_P1;SDS_P2;PMS_P1;PMS_P2;Temp;Humidity;BMP_temperature;BMP_pressure;BME280_temperature;BME280_humidity;BME280_pressure;Samples;Min_cycle;Max_cycle;Signal;HPM_P1;HPM_P2
2022/07/04 00:00:28;;;;;;;4.07;1.98;;;15.00;99.90;;;;;;5004033;28;20038;-44
2022/07/04 00:02:54;;;;;;;3.53;1.80;;;15.10;99.90;;;;;;5005803;28;20123;-46
2022/07/04 00:05:20;;;;;;;2.80;1.85;;;15.10;99.90;;;;;;5004771;28;20053;-45
2022/07/04 00:07:47;;;;;;;2.85;1.92;;;15.10;99.90;;;;;;5007952;28;20029;-48
2022/07/04 00:10:16;;;;;;;2.88;1.70;;;15.00;99.90;;;;;;4999591;28;20388;-44
2022/07/04 00:12:42;;;;;;;4.63;1.83;;;15.00;99.90;;;;;;5002662;28;20406;-47
2022/07/04 00:15:10;;;;;;;3.55;1.80;;;14.90;99.90;;;;;;5004963;28;20490;-49
2022/07/04 00:17:36;;;;;;;3.05;1.33;;;14.90;99.90;;;;;;5004583;28;20041;-51
2022/07/04 00:20:03;;;;;;;6.15;2.20;;;14.80;99.90;;;;;;5003026;28;20427;-46
2022/07/04 00:22:29;;;;;;;2.85;1.75;;;14.80;99.90;;;;;;5001103;28;20675;-47
2022/07/04 00:24:55;;;;;;;3.40;2.10;;;14.70;99.90;;;;;;5003981;28;20041;-44
2022/07/04 00:27:21;;;;;;;2.88;1.83;;;14.70;99.90;;;;;;4999618;28;20109;-44
2022/07/04 00:29:46;;;;;;;4.13;2.13;;;14.80;99.90;;;;;;4999418;28;20060;-44
2022/07/04 00:32:12;;;;;;;3.85;2.30;;;14.80;99.90;;;;;;5003918;28;20069;-44
2022/07/04 00:34:38;;;;;;;4.75;1.80;;;14.80;99.90;;;;;;5005990;28;20487;-44
2022/07/04 00:37:03;;;;;;;5.32;2.05;;;14.70;99.90;;;;;;5004941;28;20042;-48
2022/07/04 00:39:29;;;;;;;3.00;1.83;;;14.70;99.90;;;;;;5001731;28;20458;-47
2022/07/04 00:41:55;;;;;;;2.58;1.80;;;14.70;99.90;;;;;;5000566;28;20081;-43
2022/07/04 00:44:21;;;;;;;3.22;1.58;;;14.70;99.90;;;;;;5000866;28;20568;-45
2022/07/04 00:46:47;;;;;;;3.92;1.65;;;14.70;99.90;;;;;;5001201;28;22031;-44
2022/07/04 00:49:14;;;;;;;2.95;2.00;;;14.70;99.90;;;;;;4998432;28;20139;-48
2022/07/04 00:51:41;;;;;;;3.58;1.85;;;14.70;99.90;;;;;;5001721;28;20046;-44
2022/07/04 00:54:10;;;;;;;2.95;2.00;;;14.70;99.90;;;;;;5004539;28;20136;-44
2022/07/04 00:56:37;;;;;;;4.93;2.35;;;14.70;99.90;;;;;;5003957;28;20065;-46
2022/07/04 00:59:03;;;;;;;2.80;1.65;;;14.60;99.90;;;;;;5005290;28;20049;-45
2022/07/04 01:01:28;;;;;;;3.42;2.60;;;14.60;99.90;;;;;;5001853;28;20050;-45
2022/07/04 01:03:56;;;;;;;3.65;2.50;;;14.50;99.90;;;;;;5002305;28;20419;-46
2022/07/04 01:06:23;;;;;;;3.53;2.10;;;14.50;99.90;;;;;;5002774;28;20080;-48
2022/07/04 01:08:48;;;;;;;5.05;2.97;;;14.40;99.90;;;;;;5000563;28;20038;-50
2022/07/04 01:11:14;;;;;;;4.40;2.35;;;14.30;99.90;;;;;;4999981;28;20098;-44
2022/07/04 01:13:42;;;;;;;5.47;2.65;;;14.20;99.90;;;;;;5001518;28;20042;-46
2022/07/04 01:16:09;;;;;;;4.43;2.42;;;14.30;99.90;;;;;;5013059;28;20104;-44
2022/07/04 01:18:34;;;;;;;5.75;2.58;;;14.30;99.90;;;;;;5000753;28;20042;-44
2022/07/04 01:21:00;;;;;;;4.20;2.47;;;14.30;99.90;;;;;;5004798;28;20762;-45
2022/07/04 01:23:26;;;;;;;4.05;2.63;;;14.30;99.90;;;;;;5003698;28;20084;-47
2022/07/04 01:25:52;;;;;;;4.32;2.55;;;14.30;99.90;;;;;;5002588;28;20044;-50
2022/07/04 01:28:22;;;;;;;4.07;2.65;;;14.20;99.90;;;;;;5002516;28;20491;-44
2022/07/04 01:30:48;;;;;;;4.45;2.30;;;14.20;99.90;;;;;;5002558;28;20030;-49
2022/07/04 01:33:14;;;;;;;5.13;2.20;;;14.20;99.90;;;;;;5003145;28;20033;-47
2022/07/04 01:35:40;;;;;;;5.05;2.65;;;14.20;99.90;;;;;;5002892;28;20386;-45
2022/07/04 01:38:06;;;;;;;5.00;2.65;;;14.20;99.90;;;;;;5003468;28;20034;-47
2022/07/04 01:40:32;;;;;;;5.38;2.17;;;14.20;99.90;;;;;;5005235;28;21498;-44
2022/07/04 01:43:00;;;;;;;4.57;2.63;;;14.10;99.90;;;;;;5006334;28;20076;-47
2022/07/04 01:45:26;;;;;;;5.45;2.50;;;14.20;99.90;;;;;;5006851;28;20038;-46
2022/07/04 01:47:52;;;;;;;3.78;2.55;;;14.10;99.90;;;;;;5008550;28;20072;-44
2022/07/04 01:50:18;;;;;;;4.35;2.72;;;14.10;99.90;;;;;;5006436;28;20076;-44
2022/07/04 01:52:44;;;;;;;5.10;2.95;;;14.10;99.90;;;;;;5005382;28;20034;-49
2022/07/04 01:55:11;;;;;;;3.40;2.60;;;14.10;99.90;;;;;;5008598;28;20041;-44
2022/07/04 01:57:37;;;;;;;3.65;2.13;;;14.10;99.90;;;;;;5008287;28;20568;-46
2022/07/04 02:02:52;;;;;;;3.97;2.50;;;14.10;99.90;;;;;;5004967;28;20057;-47
2022/07/04 02:05:18;;;;;;;4.18;2.60;;;14.10;99.90;;;;;;5004606;28;20171;-44
2022/07/04 02:07:44;;;;;;;3.80;2.67;;;14.00;99.90;;;;;;5004023;28;20456;-49
2022/07/04 02:10:10;;;;;;;4.90;2.97;;;13.90;99.90;;;;;;5003195;28;20049;-46
2022/07/04 02:15:21;;;;;;;3.95;2.63;;;13.80;99.90;;;;;;5006182;28;20402;-46
2022/07/04 02:17:47;;;;;;;4.05;2.40;;;13.70;99.90;;;;;;5008992;28;20148;-43
2022/07/04 02:20:13;;;;;;;4.15;2.45;;;13.60;99.90;;;;;;5005154;28;20507;-46
2022/07/04 02:22:39;;;;;;;3.28;2.10;;;13.60;99.90;;;;;;5007299;28;20053;-47
2022/07/04 02:25:05;;;;;;;5.22;2.80;;;13.60;99.90;;;;;;5006363;28;20045;-46
2022/07/04 02:27:32;;;;;;;4.55;2.40;;;13.60;99.90;;;;;;5003952;28;20039;-47
2022/07/04 02:29:57;;;;;;;5.78;2.63;;;13.60;99.90;;;;;;5004630;28;20038;-47
2022/07/04 02:32:23;;;;;;;5.20;2.53;;;13.60;99.90;;;;;;5004747;28;20045;-54
2022/07/04 02:34:49;;;;;;;4.70;2.47;;;13.70;99.90;;;;;;5005539;28;20034;-46
2022/07/04 02:37:15;;;;;;;8.23;2.65;;;13.70;99.90;;;;;;5003523;28;20405;-46
2022/07/04 02:39:41;;;;;;;3.70;2.63;;;13.80;99.90;;;;;;5002952;28;20053;-47
2022/07/04 02:42:07;;;;;;;5.43;2.78;;;13.70;99.90;;;;;;4988270;28;20045;-43
2022/07/04 02:44:32;;;;;;;3.72;2.47;;;13.70;99.90;;;;;;5003085;28;20068;-46
2022/07/04 02:46:58;;;;;;;4.38;2.45;;;13.80;99.90;;;;;;5005177;28;20101;-47
2022/07/04 02:49:24;;;;;;;4.72;2.63;;;13.80;99.90;;;;;;5006380;28;20117;-43
2022/07/04 02:51:49;;;;;;;3.70;2.33;;;13.80;99.90;;;;;;5005723;28;20095;-47
2022/07/04 02:54:15;;;;;;;3.47;2.45;;;13.80;99.90;;;;;;5001681;28;20116;-45
2022/07/04 02:56:41;;;;;;;9.73;2.85;;;13.80;99.90;;;;;;5007355;28;20050;-46
2022/07/04 02:59:07;;;;;;;5.88;2.55;;;13.70;99.90;;;;;;5004632;28;20484;-46
2022/07/04 03:01:33;;;;;;;5.45;3.05;;;13.70;99.90;;;;;;5002797;28;20065;-46
2022/07/04 03:03:59;;;;;;;5.32;2.47;;;13.70;99.90;;;;;;5007107;28;20506;-44
2022/07/04 03:06:25;;;;;;;8.60;3.70;;;13.70;99.90;;;;;;5002095;28;20119;-47
2022/07/04 03:08:52;;;;;;;6.53;3.13;;;13.70;99.90;;;;;;5002685;28;20108;-45
2022/07/04 03:11:19;;;;;;;6.88;4.43;;;13.70;99.90;;;;;;5004805;28;20037;-46
2022/07/04 03:13:44;;;;;;;5.90;4.10;;;13.60;99.90;;;;;;5007316;28;20534;-49
2022/07/04 03:16:10;;;;;;;7.22;4.13;;;13.60;99.90;;;;;;5002922;28;20124;-47
2022/07/04 03:18:37;;;;;;;5.43;3.90;;;13.50;99.90;;;;;;5006913;28;20132;-47
2022/07/04 03:21:04;;;;;;;7.13;4.05;;;13.40;99.90;;;;;;5004423;28;20413;-49
2022/07/04 03:23:30;;;;;;;4.38;2.80;;;13.40;99.90;;;;;;5003000;28;20402;-46
2022/07/04 03:25:56;;;;;;;5.55;3.15;;;13.40;99.90;;;;;;5005333;28;20604;-45
2022/07/04 03:28:22;;;;;;;6.80;3.22;;;13.50;99.90;;;;;;5017424;28;20038;-43
2022/07/04 03:30:48;;;;;;;4.38;2.88;;;13.50;99.90;;;;;;5006011;28;20167;-44
2022/07/04 03:33:13;;;;;;;7.57;3.50;;;13.40;99.90;;;;;;5005793;28;20120;-46
2022/07/04 03:35:39;;;;;;;5.07;2.92;;;13.40;99.90;;;;;;5006699;28;20034;-44
2022/07/04 03:38:05;;;;;;;6.57;3.55;;;13.40;99.90;;;;;;5003509;28;20065;-45
2022/07/04 03:40:31;;;;;;;3.92;2.50;;;13.40;99.90;;;;;;5000750;28;20115;-46
2022/07/04 03:42:58;;;;;;;6.05;2.35;;;13.30;99.90;;;;;;5003484;28;20510;-46
2022/07/04 03:45:24;;;;;;;5.60;3.05;;;13.30;99.90;;;;;;5002418;28;20087;-48
2022/07/04 03:47:50;;;;;;;6.30;3.10;;;13.30;99.90;;;;;;5005053;28;20040;-45
2022/07/04 03:50:17;;;;;;;5.38;3.28;;;13.40;99.90;;;;;;5002050;28;20042;-46
2022/07/04 03:52:42;;;;;;;4.63;3.33;;;13.40;99.90;;;;;;4998576;28;20132;-45
2022/07/04 03:55:09;;;;;;;4.28;2.95;;;13.40;99.90;;;;;;5004769;28;20088;-50
2022/07/04 03:57:35;;;;;;;6.80;3.35;;;13.40;99.90;;;;;;5004813;28;20482;-47
2022/07/04 04:00:01;;;;;;;5.53;2.80;;;13.40;99.90;;;;;;5000927;28;20037;-44
2022/07/04 04:02:27;;;;;;;4.63;2.78;;;13.50;99.90;;;;;;4999780;28;20089;-47
2022/07/04 04:07:37;;;;;;;7.40;3.38;;;13.60;99.90;;;;;;5003887;28;20076;-44
2022/07/04 04:10:03;;;;;;;5.85;3.30;;;13.60;99.90;;;;;;5003297;28;20463;-45
2022/07/04 04:12:29;;;;;;;5.57;3.30;;;13.60;99.90;;;;;;5003035;28;20076;-44
2022/07/04 04:14:54;;;;;;;8.15;3.40;;;13.60;99.90;;;;;;4999754;28;20034;-46
2022/07/04 04:17:20;;;;;;;5.38;2.67;;;13.60;99.90;;;;;;4999093;28;20077;-47
2022/07/04 04:19:46;;;;;;;8.75;3.80;;;13.70;99.90;;;;;;5003500;28;20038;-44
2022/07/04 04:22:12;;;;;;;6.55;2.65;;;13.60;99.90;;;;;;4999963;28;20038;-45
2022/07/04 04:24:37;;;;;;;8.65;2.85;;;13.70;99.90;;;;;;5003757;28;20098;-48
2022/07/04 04:27:04;;;;;;;5.50;2.95;;;13.70;99.90;;;;;;5004770;28;20101;-48
2022/07/04 04:29:30;;;;;;;6.05;2.38;;;13.70;99.90;;;;;;5002330;28;20041;-46
2022/07/04 04:31:56;;;;;;;4.85;2.60;;;13.80;99.90;;;;;;5004781;28;20045;-48
2022/07/04 04:34:21;;;;;;;8.15;3.13;;;13.90;99.90;;;;;;5001375;28;20071;-46
2022/07/04 04:36:47;;;;;;;5.65;2.55;;;13.90;99.90;;;;;;4998376;28;20053;-46
2022/07/04 04:39:13;;;;;;;7.97;3.10;;;13.90;99.90;;;;;;5003046;28;20041;-45
2022/07/04 04:41:39;;;;;;;5.07;3.05;;;13.90;99.90;;;;;;4999425;28;20292;-50
2022/07/04 04:44:05;;;;;;;5.80;2.95;;;13.90;99.90;;;;;;5003548;28;20042;-43
2022/07/04 04:46:31;;;;;;;7.43;3.15;;;13.90;99.90;;;;;;4999025;28;20061;-44
2022/07/04 04:48:56;;;;;;;5.40;2.97;;;13.90;99.90;;;;;;5002202;28;20037;-46
2022/07/04 04:51:22;;;;;;;5.45;3.05;;;13.90;99.90;;;;;;5003127;28;20066;-44
2022/07/04 04:53:48;;;;;;;6.38;3.20;;;13.90;99.90;;;;;;5001912;28;20034;-45
2022/07/04 04:56:14;;;;;;;6.50;2.83;;;13.90;99.90;;;;;;4999828;28;20475;-47
2022/07/04 04:58:39;;;;;;;7.45;3.50;;;13.90;99.90;;;;;;5001772;28;20034;-46
2022/07/04 05:01:05;;;;;;;5.07;3.10;;;14.00;99.90;;;;;;5002140;28;20144;-44
2022/07/04 05:03:31;;;;;;;6.35;2.88;;;13.90;99.90;;;;;;5002928;28;20045;-45
2022/07/04 05:05:57;;;;;;;4.80;3.00;;;14.00;99.90;;;;;;5002272;28;20111;-44
2022/07/04 05:08:25;;;;;;;7.60;3.20;;;14.00;99.90;;;;;;5003707;28;20045;-45
2022/07/04 05:10:51;;;;;;;6.07;3.33;;;14.10;99.90;;;;;;5001555;28;20077;-44
2022/07/04 05:13:17;;;;;;;5.93;3.28;;;14.10;99.90;;;;;;5003390;28;20045;-45
2022/07/04 05:15:42;;;;;;;6.53;3.58;;;14.20;99.90;;;;;;5007801;28;20045;-44
2022/07/04 05:18:08;;;;;;;5.45;3.25;;;14.30;99.90;;;;;;5021279;28;20535;-43
2022/07/04 05:20:34;;;;;;;7.18;3.35;;;14.30;99.90;;;;;;5005711;28;20042;-46
2022/07/04 05:22:59;;;;;;;7.20;3.45;;;14.40;99.90;;;;;;5004766;28;20038;-43
2022/07/04 05:25:25;;;;;;;4.40;2.97;;;14.40;99.90;;;;;;5009639;28;20541;-43
2022/07/04 05:27:51;;;;;;;7.15;3.22;;;14.40;99.90;;;;;;5008408;28;20537;-47
2022/07/04 05:30:17;;;;;;;6.50;3.08;;;14.40;99.90;;;;;;5001387;28;20736;-45
2022/07/04 05:32:43;;;;;;;6.70;3.15;;;14.50;99.90;;;;;;5002404;28;20475;-47
2022/07/04 05:35:09;;;;;;;5.90;3.05;;;14.60;99.90;;;;;;5003581;28;20396;-46
2022/07/04 05:37:35;;;;;;;5.03;2.88;;;14.70;99.90;;;;;;5004533;28;20490;-45
2022/07/04 05:40:02;;;;;;;6.65;3.30;;;14.90;99.90;;;;;;5002091;28;20068;-45
2022/07/04 05:42:27;;;;;;;7.28;3.28;;;15.00;99.90;;;;;;5008304;28;20092;-44
2022/07/04 05:44:53;;;;;;;5.93;2.65;;;15.10;99.90;;;;;;5008882;28;20046;-44
2022/07/04 05:47:23;;;;;;;7.00;3.35;;;15.20;99.90;;;;;;5005152;28;20065;-46
2022/07/04 05:49:49;;;;;;;7.30;3.15;;;15.30;99.90;;;;;;5007626;28;20037;-45
2022/07/04 05:52:15;;;;;;;9.93;3.75;;;15.30;99.90;;;;;;5004598;28;20037;-47
2022/07/04 05:54:41;;;;;;;5.30;3.10;;;15.50;99.90;;;;;;5004898;28;20046;-46
2022/07/04 05:57:07;;;;;;;7.20;2.90;;;15.60;99.90;;;;;;5002139;28;20049;-47
2022/07/04 05:59:32;;;;;;;4.63;2.95;;;15.80;99.90;;;;;;5004927;28;20133;-44
2022/07/04 06:01:58;;;;;;;6.28;3.60;;;15.90;99.90;;;;;;5004327;28;20449;-45
2022/07/04 06:04:24;;;;;;;6.25;3.25;;;16.10;99.90;;;;;;5004518;28;20080;-51
2022/07/04 06:06:50;;;;;;;5.57;2.88;;;16.10;99.90;;;;;;5000061;28;20053;-45
2022/07/04 06:09:15;;;;;;;7.25;2.63;;;16.10;99.90;;;;;;5003252;28;20038;-47
2022/07/04 06:11:41;;;;;;;8.50;2.63;;;16.20;99.90;;;;;;5004395;28;20042;-44
2022/07/04 06:14:07;;;;;;;6.38;2.90;;;16.10;99.90;;;;;;5004915;28;20064;-44
2022/07/04 06:16:33;;;;;;;8.52;3.20;;;16.10;99.90;;;;;;5000786;28;20071;-47
2022/07/04 06:18:58;;;;;;;10.68;3.00;;;16.00;99.90;;;;;;4999741;28;20452;-44
2022/07/04 06:21:24;;;;;;;11.43;3.15;;;16.10;99.90;;;;;;5005227;28;20041;-50
2022/07/04 06:23:50;;;;;;;7.80;3.45;;;16.10;99.90;;;;;;5005559;28;20077;-47
2022/07/04 06:26:15;;;;;;;6.97;2.25;;;16.10;99.90;;;;;;5006415;28;20050;-43
2022/07/04 06:28:41;;;;;;;6.65;2.53;;;16.20;99.90;;;;;;5004399;28;20387;-47
2022/07/04 06:31:07;;;;;;;5.78;2.45;;;16.50;99.90;;;;;;5005867;28;20049;-49
2022/07/04 06:35:44;;;;;;;4.00;1.60;;;16.70;99.90;;;;;;5007598;28;20128;-45
2022/07/04 06:36:18;;;;;;;6.20;2.50;;;16.90;99.90;;;;;;5006154;28;20455;-47
2022/07/04 06:38:44;;;;;;;6.78;2.47;;;17.10;99.90;;;;;;5004873;28;20068;-49
2022/07/04 06:41:11;;;;;;;5.93;2.30;;;17.20;99.90;;;;;;5005098;28;20058;-45
2022/07/04 06:43:36;;;;;;;7.07;2.63;;;17.30;99.90;;;;;;5004223;28;20042;-46
2022/07/04 06:46:02;;;;;;;5.57;1.77;;;17.30;99.90;;;;;;5003148;28;20392;-44
2022/07/04 06:48:28;;;;;;;9.15;1.77;;;17.30;99.90;;;;;;5004479;28;20045;-43
2022/07/04 06:50:53;;;;;;;7.57;2.65;;;17.50;99.90;;;;;;5006298;28;20057;-48
2022/07/04 06:53:19;;;;;;;5.18;2.80;;;17.60;99.90;;;;;;5003142;28;20407;-45
2022/07/04 06:55:44;;;;;;;7.28;2.55;;;17.60;99.90;;;;;;5004156;28;20479;-44
2022/07/04 06:58:12;;;;;;;7.65;2.92;;;17.70;99.90;;;;;;5006139;28;20395;-47
2022/07/04 07:00:38;;;;;;;9.95;3.40;;;17.80;99.90;;;;;;5002952;28;20045;-50
2022/07/04 07:03:04;;;;;;;7.90;3.33;;;17.90;99.90;;;;;;5002613;28;20068;-44
2022/07/04 07:05:30;;;;;;;7.88;2.78;;;18.00;99.90;;;;;;5002821;28;20073;-45
2022/07/04 07:07:56;;;;;;;14.90;4.00;;;18.00;99.90;;;;;;5003896;28;20035;-48
2022/07/04 07:10:22;;;;;;;7.50;3.03;;;18.10;99.90;;;;;;5004649;28;20049;-46
2022/07/04 07:12:48;;;;;;;8.38;3.08;;;18.10;99.90;;;;;;5005380;28;20033;-48
2022/07/04 07:15:14;;;;;;;7.25;2.97;;;18.20;99.90;;;;;;5000069;28;20503;-46
2022/07/04 07:17:40;;;;;;;10.52;3.28;;;18.20;99.90;;;;;;5006265;28;20042;-48
2022/07/04 07:20:07;;;;;;;5.65;3.20;;;18.40;99.90;;;;;;5004472;28;20042;-49
2022/07/04 07:22:33;;;;;;;8.63;2.95;;;18.50;99.90;;;;;;5002636;28;20048;-45
2022/07/04 07:24:58;;;;;;;9.40;3.53;;;18.70;99.90;;;;;;5000907;28;20038;-46
2022/07/04 07:27:24;;;;;;;8.57;3.78;;;18.80;99.90;;;;;;4999541;28;20456;-45
2022/07/04 07:29:50;;;;;;;9.50;3.20;;;19.00;99.90;;;;;;5004876;28;20061;-49
2022/07/04 07:32:17;;;;;;;5.93;1.95;;;19.10;99.90;;;;;;5004172;28;20082;-46
2022/07/04 07:34:43;;;;;;;8.05;1.70;;;19.10;99.90;;;;;;5002474;28;20041;-45
2022/07/04 07:37:08;;;;;;;6.65;1.90;;;19.10;99.90;;;;;;5002528;28;20069;-46
2022/07/04 07:39:34;;;;;;;5.90;1.20;;;19.10;99.90;;;;;;5000249;28;20045;-49
2022/07/04 07:42:00;;;;;;;6.05;1.70;;;19.00;99.90;;;;;;5005163;28;20076;-48
2022/07/04 07:44:25;;;;;;;3.92;2.00;;;19.00;99.90;;;;;;5004453;28;20048;-52
2022/07/04 07:46:51;;;;;;;7.22;2.28;;;19.00;99.90;;;;;;5000723;28;20042;-50
2022/07/04 07:49:17;;;;;;;6.63;2.35;;;18.90;99.90;;;;;;4999742;28;20042;-41
2022/07/04 07:51:43;;;;;;;6.00;2.15;;;18.80;99.90;;;;;;5002344;28;20092;-43
2022/07/04 07:54:09;;;;;;;4.60;1.38;;;18.80;99.90;;;;;;5003646;28;20038;-44
2022/07/04 07:56:34;;;;;;;5.72;2.05;;;18.80;99.90;;;;;;5007110;28;20088;-54
2022/07/04 07:59:00;;;;;;;7.47;2.25;;;19.00;99.90;;;;;;5004104;28;20041;-48
2022/07/04 08:01:26;;;;;;;9.05;2.72;;;19.20;99.90;;;;;;5005024;28;20084;-44
2022/07/04 08:06:36;;;;;;;4.97;2.35;;;19.10;99.90;;;;;;5002716;28;20129;-44
2022/07/04 08:09:02;;;;;;;5.50;1.70;;;19.10;99.90;;;;;;5001353;28;20144;-45
2022/07/04 08:11:27;;;;;;;5.57;1.70;;;19.10;99.90;;;;;;5002362;28;20506;-43
2022/07/04 08:13:53;;;;;;;5.22;1.75;;;19.20;99.90;;;;;;5000883;28;20417;-46
2022/07/04 08:16:19;;;;;;;5.95;2.60;;;19.40;99.90;;;;;;5000980;28;20400;-52
2022/07/04 08:18:45;;;;;;;7.13;1.75;;;19.60;99.90;;;;;;5003899;28;20037;-42
2022/07/04 08:21:13;;;;;;;5.82;1.80;;;19.60;99.90;;;;;;5004773;28;20115;-45
2022/07/04 08:23:40;;;;;;;6.85;1.77;;;19.70;99.90;;;;;;5003583;28;20200;-43
2022/07/04 08:26:06;;;;;;;4.43;1.35;;;19.80;99.90;;;;;;5001164;28;20436;-48
2022/07/04 08:28:32;;;;;;;6.88;1.70;;;19.90;99.90;;;;;;5002488;28;20120;-51
2022/07/04 08:30:58;;;;;;;6.18;1.85;;;20.00;99.90;;;;;;5002010;28;20049;-45
2022/07/04 08:33:25;;;;;;;3.85;1.38;;;20.10;99.90;;;;;;5002470;28;20085;-45
2022/07/04 08:35:51;;;;;;;5.13;1.30;;;20.20;99.60;;;;;;5000165;28;21108;-43
2022/07/04 08:38:17;;;;;;;6.80;1.48;;;20.10;99.80;;;;;;5002513;28;20116;-42
2022/07/04 08:40:43;;;;;;;4.57;1.27;;;20.10;99.40;;;;;;5005912;28;20263;-47
2022/07/04 08:43:13;;;;;;;4.18;1.20;;;20.30;99.10;;;;;;5005444;28;20120;-46
2022/07/04 08:45:40;;;;;;;3.22;0.80;;;20.40;97.10;;;;;;4999070;28;20125;-48
2022/07/04 08:48:09;;;;;;;3.67;0.90;;;20.50;97.10;;;;;;5000594;28;20042;-47
2022/07/04 08:50:38;;;;;;;3.20;0.90;;;20.80;97.00;;;;;;5002790;28;20049;-44
2022/07/04 08:53:13;;;;;;;4.85;1.00;;;20.80;94.80;;;;;;5006349;28;20443;-48
2022/07/04 08:58:30;;;;;;;2.83;0.80;;;20.60;94.80;;;;;;5003514;28;20038;-45
2022/07/04 09:01:03;;;;;;;6.97;1.45;;;20.30;95.10;;;;;;5003490;28;20037;-45
2022/07/04 09:03:30;;;;;;;4.95;1.00;;;20.10;95.40;;;;;;5005912;28;20888;-47
2022/07/04 09:05:56;;;;;;;3.95;0.88;;;20.10;95.90;;;;;;5002480;28;20033;-49
2022/07/04 09:08:22;;;;;;;3.97;0.88;;;20.20;95.50;;;;;;5001347;28;20034;-52
2022/07/04 09:10:49;;;;;;;5.47;0.90;;;20.40;95.60;;;;;;5005099;28;20436;-45
2022/07/04 09:13:17;;;;;;;3.75;0.77;;;20.50;94.90;;;;;;5002162;28;20037;-48
2022/07/04 09:15:45;;;;;;;3.45;0.75;;;20.60;94.80;;;;;;4999522;28;20183;-43
2022/07/04 09:18:23;;;;;;;2.22;0.68;;;20.80;94.00;;;;;;4998524;28;20077;-46
2022/07/04 09:20:50;;;;;;;5.35;0.75;;;20.90;93.80;;;;;;5004039;28;20572;-43
2022/07/04 09:23:25;;;;;;;3.78;0.98;;;21.00;92.90;;;;;;5003470;28;20386;-42
2022/07/04 09:26:15;;;;;;;4.43;1.17;;;21.00;91.20;;;;;;4998012;28;20121;-51
2022/07/04 09:28:50;;;;;;;1.95;0.60;;;20.90;87.30;;;;;;5001652;28;20121;-45
2022/07/04 09:31:25;;;;;;;2.63;0.60;;;20.80;87.80;;;;;;5002658;28;20034;-43
2022/07/04 09:33:52;;;;;;;3.00;0.52;;;20.80;87.30;;;;;;5002453;28;20034;-47
2022/07/04 09:36:22;;;;;;;1.88;0.55;;;20.80;87.70;;;;;;5000642;28;20203;-44
2022/07/04 09:39:11;;;;;;;2.83;0.47;;;20.90;86.10;;;;;;5006227;28;20061;-50
2022/07/04 09:42:02;;;;;;;2.10;0.50;;;21.00;82.80;;;;;;5000538;28;20062;-45
2022/07/04 09:44:34;;;;;;;4.28;0.50;;;21.00;77.00;;;;;;5002664;28;20050;-46
2022/07/04 09:47:23;;;;;;;1.07;0.40;;;20.80;80.30;;;;;;5001643;28;20038;-45
2022/07/04 09:50:06;;;;;;;1.35;0.47;;;20.50;76.70;;;;;;4998828;28;20471;-44
2022/07/04 09:52:45;;;;;;;1.33;0.60;;;20.30;81.00;;;;;;4998647;28;20391;-47
2022/07/04 09:55:11;;;;;;;2.95;0.50;;;20.20;83.40;;;;;;5005356;28;20113;-47
2022/07/04 09:57:37;;;;;;;3.53;0.60;;;20.10;84.40;;;;;;5003931;28;20041;-44
2022/07/04 10:00:45;;;;;;;2.90;0.60;;;20.20;85.20;;;;;;4996523;28;20068;-49
2022/07/04 10:03:22;;;;;;;3.13;0.95;;;20.20;85.10;;;;;;4929754;29;20575;-48
2022/07/04 10:06:05;;;;;;;2.20;0.68;;;20.20;86.20;;;;;;4928125;29;20711;-46
2022/07/04 10:08:32;;;;;;;3.60;0.85;;;20.30;86.10;;;;;;4983837;28;20046;-45
2022/07/04 10:10:59;;;;;;;2.20;0.60;;;20.40;84.80;;;;;;5004883;28;20117;-44
2022/07/04 10:13:25;;;;;;;4.03;0.80;;;20.50;83.20;;;;;;5009183;28;20466;-46
2022/07/04 10:15:51;;;;;;;1.35;0.40;;;20.70;83.80;;;;;;5007223;28;20048;-45
2022/07/04 10:18:19;;;;;;;1.17;0.40;;;20.70;80.00;;;;;;5003487;28;20179;-47
2022/07/04 10:20:46;;;;;;;2.75;0.52;;;20.70;79.20;;;;;;5006179;28;20049;-45
2022/07/04 10:23:12;;;;;;;3.25;0.52;;;20.80;80.40;;;;;;5006006;28;20128;-49
2022/07/04 10:25:39;;;;;;;1.80;0.55;;;20.80;78.20;;;;;;5005120;28;20574;-48
2022/07/04 10:28:05;;;;;;;2.83;0.50;;;20.90;77.40;;;;;;5006667;28;20081;-46
2022/07/04 10:30:36;;;;;;;0.93;0.47;;;21.00;77.20;;;;;;5004651;28;20064;-44
2022/07/04 10:33:04;;;;;;;2.47;0.50;;;21.30;78.30;;;;;;5002181;28;20052;-48
2022/07/04 10:36:15;;;;;;;2.88;0.68;;;21.40;75.90;;;;;;5008086;28;20384;-45
2022/07/04 10:38:59;;;;;;;1.55;0.50;;;21.60;74.70;;;;;;4927001;29;20067;-45
2022/07/04 10:41:26;;;;;;;0.75;0.45;;;21.70;69.80;;;;;;5002419;28;20046;-49
2022/07/04 10:44:06;;;;;;;1.30;0.40;;;21.60;72.00;;;;;;5023102;28;21021;-49
2022/07/04 10:46:58;;;;;;;3.20;0.60;;;21.40;70.30;;;;;;5007580;28;20075;-46
2022/07/04 10:49:26;;;;;;;0.75;0.50;;;21.30;70.70;;;;;;5000305;28;20506;-48
2022/07/04 10:51:54;;;;;;;2.25;0.45;;;21.40;71.80;;;;;;5008164;28;20459;-45
2022/07/04 10:54:31;;;;;;;1.70;0.73;;;21.50;71.10;;;;;;5005266;28;20099;-47
2022/07/04 10:57:19;;;;;;;3.70;0.70;;;21.60;67.70;;;;;;5010153;28;20424;-49
2022/07/04 10:59:57;;;;;;;2.75;0.60;;;21.60;67.80;;;;;;5003483;28;20049;-45
2022/07/04 11:02:23;;;;;;;1.80;0.60;;;21.60;70.50;;;;;;4999797;28;20139;-49
2022/07/04 11:05:03;;;;;;;1.98;0.60;;;21.60;70.00;;;;;;5001319;28;20050;-51
2022/07/04 11:07:39;;;;;;;2.40;0.70;;;21.70;67.00;;;;;;5004990;28;20369;-44
2022/07/04 11:12:55;;;;;;;1.30;0.60;;;21.90;69.70;;;;;;5003258;28;20125;-47
2022/07/04 11:15:29;;;;;;;1.95;0.68;;;22.00;67.10;;;;;;5005460;28;20100;-47
2022/07/04 11:18:02;;;;;;;2.40;0.68;;;22.00;69.70;;;;;;5007108;28;20042;-46
2022/07/04 11:20:30;;;;;;;1.98;0.68;;;22.10;70.60;;;;;;4999764;28;20121;-43
2022/07/04 11:23:09;;;;;;;2.22;0.60;;;22.10;67.00;;;;;;5001164;28;20092;-44
2022/07/04 11:25:35;;;;;;;3.05;0.60;;;22.20;68.80;;;;;;5005234;28;20069;-46
2022/07/04 11:28:31;;;;;;;1.75;0.60;;;22.10;68.00;;;;;;5003442;28;20097;-46
2022/07/04 11:31:00;;;;;;;2.88;0.68;;;22.20;67.70;;;;;;5003990;28;20505;-48
2022/07/04 11:33:28;;;;;;;2.70;0.68;;;22.30;69.10;;;;;;5004288;28;20054;-47
2022/07/04 11:36:04;;;;;;;2.90;0.50;;;22.30;67.70;;;;;;5001221;28;20073;-47
2022/07/04 11:38:45;;;;;;;3.05;0.70;;;22.50;65.60;;;;;;5003235;28;20493;-44
2022/07/04 11:46:39;;;;;;;1.60;0.50;;;22.30;65.70;;;;;;5004250;28;20037;-48
2022/07/04 11:49:11;;;;;;;2.97;0.70;;;22.20;64.70;;;;;;5002915;28;20415;-49
2022/07/04 11:51:45;;;;;;;3.10;0.73;;;22.30;65.90;;;;;;5004591;28;20727;-46
2022/07/04 11:54:11;;;;;;;1.23;0.60;;;22.40;64.70;;;;;;5004596;28;20046;-47
2022/07/04 11:56:37;;;;;;;2.78;0.50;;;22.40;62.90;;;;;;4999856;28;20049;-48
2022/07/04 11:59:15;;;;;;;1.35;0.50;;;22.50;63.50;;;;;;5006165;28;20065;-46
2022/07/04 12:01:42;;;;;;;2.67;0.50;;;22.40;60.10;;;;;;5001263;28;20478;-44
2022/07/04 12:04:19;;;;;;;1.52;0.40;;;22.30;63.60;;;;;;5005835;28;20474;-48
2022/07/04 12:06:47;;;;;;;4.43;0.50;;;22.20;62.00;;;;;;5004704;28;20160;-45
2022/07/04 12:09:13;;;;;;;1.20;0.50;;;22.20;62.50;;;;;;5005711;28;20068;-48
2022/07/04 12:11:58;;;;;;;3.10;0.43;;;22.20;62.90;;;;;;5006100;28;20041;-48
2022/07/04 12:14:26;;;;;;;1.23;0.45;;;22.30;61.80;;;;;;5006992;28;20049;-50
2022/07/04 12:17:19;;;;;;;3.05;0.40;;;22.30;58.90;;;;;;5006153;28;20037;-44
2022/07/04 12:19:54;;;;;;;;;;;22.10;57.20;;;;;;5003019;28;20072;-47
2022/07/04 12:22:37;;;;;;;1.52;0.60;;;22.10;57.60;;;;;;5005310;28;19921;-45
2022/07/04 12:25:05;;;;;;;1.60;0.40;;;22.20;58.60;;;;;;5006181;28;20046;-46
2022/07/04 12:27:33;;;;;;;4.70;0.50;;;22.20;56.50;;;;;;5007003;28;20128;-48
2022/07/04 12:30:00;;;;;;;3.60;0.40;;;22.20;55.40;;;;;;5007843;28;20037;-44
2022/07/04 12:32:49;;;;;;;3.95;0.47;;;22.20;55.30;;;;;;5002925;28;20096;-46
2022/07/04 12:35:50;;;;;;;1.67;0.40;;;22.20;57.50;;;;;;5005968;28;20052;-45
2022/07/04 12:38:23;;;;;;;3.85;0.45;;;22.30;54.70;;;;;;5003785;28;20656;-43
2022/07/04 12:41:07;;;;;;;2.40;0.40;;;22.30;55.10;;;;;;5005926;28;20045;-44
2022/07/04 12:43:39;;;;;;;5.88;0.45;;;22.40;53.50;;;;;;5003746;28;20046;-46
2022/07/04 12:46:05;;;;;;;4.25;0.55;;;22.30;53.50;;;;;;5003172;28;20085;-42
2022/07/04 12:48:31;;;;;;;1.77;0.40;;;22.30;53.00;;;;;;5002067;28;20089;-46
2022/07/04 12:51:09;;;;;;;2.35;0.40;;;22.20;54.10;;;;;;5004848;28;20110;-47
2022/07/04 12:53:39;;;;;;;2.63;0.38;;;22.10;52.70;;;;;;5001377;28;20514;-44
2022/07/04 12:56:05;;;;;;;0.88;0.30;;;22.20;55.10;;;;;;5002291;28;20041;-46
2022/07/04 12:58:31;;;;;;;5.35;0.90;;;22.30;54.70;;;;;;5002989;28;20529;-43
2022/07/04 13:00:57;;;;;;;3.65;0.40;;;22.50;55.20;;;;;;5004337;28;20042;-46
2022/07/04 13:03:23;;;;;;;0.63;0.30;;;22.60;53.20;;;;;;5002077;28;20057;-46
2022/07/04 13:05:49;;;;;;;5.63;0.95;;;22.60;53.30;;;;;;5001193;28;20063;-44
2022/07/04 13:08:15;;;;;;;2.15;0.30;;;22.70;53.40;;;;;;5001332;28;20064;-45
2022/07/04 13:10:41;;;;;;;1.20;0.30;;;22.60;53.20;;;;;;5001229;28;20148;-43
2022/07/04 13:13:07;;;;;;;1.50;0.40;;;22.70;54.20;;;;;;4998164;28;20085;-45
2022/07/04 13:15:33;;;;;;;1.10;0.40;;;22.70;51.20;;;;;;5000541;28;20036;-44